createdAt,value
2023-02-11T00:02:05.348Z,93.82
2023-02-11T00:04:32.146Z,92.44
2023-02-11T00:06:58.619Z,92.75
2023-02-11T00:09:24.997Z,93.38
2023-02-11T00:11:51.385Z,92.80
2023-02-11T00:14:17.763Z,92.71
2023-02-11T00:16:44.333Z,93.17
2023-02-11T00:19:10.732Z,94.44
2023-02-11T00:21:37.094Z,94.99
2023-02-11T00:24:04.020Z,95.55
2023-02-11T00:26:35.206Z,95.79
2023-02-11T00:29:02.511Z,95.29
2023-02-11T00:31:29.247Z,94.40
2023-02-11T00:33:56.821Z,94.48
2023-02-11T00:36:25.820Z,94.11
2023-02-11T00:38:54.722Z,94.41
2023-02-11T00:41:22.173Z,94.72
2023-02-11T00:43:49.043Z,94.16
2023-02-11T00:46:15.714Z,95.34
2023-02-11T00:48:42.135Z,94.47
2023-02-11T00:51:08.777Z,95.13
2023-02-11T00:53:35.683Z,95.09
2023-02-11T00:56:02.536Z,95.22
2023-02-11T00:58:29.124Z,94.81
2023-02-11T01:00:55.904Z,95.34
2023-02-11T01:03:22.459Z,94.81
2023-02-11T01:05:49.292Z,94.31
2023-02-11T01:08:15.788Z,95.53
2023-02-11T01:10:43.908Z,94.64
2023-02-11T01:13:10.492Z,95.00
2023-02-11T01:15:36.887Z,95.43
2023-02-11T01:18:05.637Z,95.23
2023-02-11T01:20:32.119Z,94.80
2023-02-11T01:22:58.536Z,95.16
2023-02-11T01:25:24.940Z,94.48
2023-02-11T01:27:51.319Z,94.81
2023-02-11T01:30:17.729Z,95.12
2023-02-11T01:32:44.121Z,94.36
2023-02-11T01:35:10.651Z,94.70
2023-02-11T01:37:37.180Z,95.11
2023-02-11T01:40:06.595Z,95.02
2023-02-11T01:42:33.332Z,94.64
2023-02-11T01:45:01.895Z,95.46
2023-02-11T01:47:28.296Z,95.25
2023-02-11T01:50:01.526Z,95.39
2023-02-11T01:52:34.967Z,95.73
2023-02-11T01:55:27.021Z,95.74
2023-02-11T01:57:56.955Z,95.53
2023-02-11T02:00:36.219Z,96.42
2023-02-11T02:03:33.984Z,97.18
2023-02-11T02:06:10.808Z,95.53
2023-02-11T02:08:53.721Z,96.74
2023-02-11T02:11:20.137Z,98.13
2023-02-11T02:13:46.796Z,97.77
2023-02-11T02:16:16.137Z,97.96
2023-02-11T02:19:19.260Z,98.27
2023-02-11T02:21:51.885Z,97.57
2023-02-11T02:24:39.697Z,97.40
2023-02-11T02:27:25.265Z,98.32
2023-02-11T02:30:03.354Z,97.49
2023-02-11T02:32:53.304Z,96.74
2023-02-11T02:35:34.906Z,97.11
2023-02-11T02:38:11.809Z,96.30
2023-02-11T02:40:48.660Z,97.04
2023-02-11T02:43:15.678Z,96.39
2023-02-11T02:45:42.170Z,96.32
2023-02-11T02:48:32.952Z,96.81
2023-02-11T02:51:17.649Z,97.57
2023-02-11T02:54:02.793Z,96.12
2023-02-11T02:56:50.185Z,96.37
2023-02-11T02:59:38.713Z,97.08
2023-02-11T03:02:37.091Z,97.84
2023-02-11T03:05:15.286Z,96.94
2023-02-11T03:08:00.007Z,97.50
2023-02-11T03:10:31.051Z,98.01
2023-02-11T03:12:58.292Z,97.52
2023-02-11T03:15:27.492Z,97.79
2023-02-11T03:17:58.219Z,97.97
2023-02-11T03:20:25.523Z,97.97
2023-02-11T03:22:58.753Z,98.43
2023-02-11T03:25:37.038Z,98.19
2023-02-11T03:28:26.812Z,97.19
2023-02-11T03:31:10.555Z,98.01
2023-02-11T03:33:48.341Z,98.39
2023-02-11T03:36:24.233Z,97.12
2023-02-11T03:38:52.828Z,97.04
2023-02-11T03:41:23.232Z,95.95
2023-02-11T03:43:54.268Z,96.79
2023-02-11T03:46:25.298Z,97.64
2023-02-11T03:48:56.309Z,96.39
2023-02-11T03:51:25.642Z,97.53
2023-02-11T03:53:56.878Z,97.21
2023-02-11T03:56:27.594Z,97.16
2023-02-11T03:58:54.017Z,96.88
2023-02-11T04:01:20.645Z,97.58
2023-02-11T04:03:47.036Z,97.53
2023-02-11T04:06:13.434Z,96.87
2023-02-11T04:08:39.899Z,97.14
2023-02-11T04:11:06.433Z,97.12
2023-02-11T04:13:33.011Z,96.26
2023-02-11T04:15:59.442Z,96.62
2023-02-11T04:18:25.876Z,95.65
2023-02-11T04:20:52.287Z,96.57
2023-02-11T04:23:18.731Z,96.51
2023-02-11T04:25:45.110Z,95.64
2023-02-11T04:28:11.510Z,96.13
2023-02-11T04:30:37.948Z,96.74
2023-02-11T04:33:04.366Z,98.14
2023-02-11T04:35:30.761Z,96.99
2023-02-11T04:37:57.428Z,97.02
2023-02-11T04:40:23.903Z,97.66
2023-02-11T04:42:50.305Z,97.45
2023-02-11T04:45:16.794Z,97.82
2023-02-11T04:47:43.229Z,99.08
2023-02-11T04:50:09.960Z,99.06
2023-02-11T04:52:36.343Z,98.04
2023-02-11T04:55:02.971Z,98.58
2023-02-11T04:57:29.516Z,98.41
2023-02-11T04:59:55.988Z,97.90
2023-02-11T05:02:22.373Z,98.95
2023-02-11T05:04:48.732Z,99.16
2023-02-11T05:07:15.112Z,99.17
2023-02-11T05:09:41.630Z,99.44
2023-02-11T05:12:08.450Z,99.01
2023-02-11T05:14:34.828Z,99.41
2023-02-11T05:17:01.328Z,99.32
2023-02-11T05:19:27.944Z,97.92
2023-02-11T05:22:02.637Z,97.48
2023-02-11T05:24:31.651Z,98.35
2023-02-11T05:26:58.023Z,99.00
2023-02-11T05:29:24.405Z,98.94
2023-02-11T05:31:50.764Z,98.30
2023-02-11T05:34:17.139Z,98.12
2023-02-11T05:36:43.529Z,97.45
2023-02-11T05:39:09.930Z,98.32
2023-02-11T05:41:36.399Z,97.91
2023-02-11T05:44:02.801Z,98.35
2023-02-11T05:46:29.223Z,98.02
2023-02-11T05:48:56.826Z,97.90
2023-02-11T05:51:25.218Z,95.92
2023-02-11T05:53:51.658Z,96.68
2023-02-11T05:56:18.083Z,95.99
2023-02-11T05:58:44.461Z,95.54
2023-02-11T06:01:10.868Z,97.33
2023-02-11T06:03:37.423Z,97.49
2023-02-11T06:06:04.154Z,97.49
2023-02-11T06:08:30.555Z,99.00
2023-02-11T06:10:56.921Z,99.46
2023-02-11T06:13:23.319Z,98.92
2023-02-11T06:15:57.439Z,98.86
2023-02-11T06:18:24.032Z,99.74
2023-02-11T06:20:50.431Z,99.11
2023-02-11T06:23:16.829Z,99.23
2023-02-11T06:25:43.231Z,99.45
2023-02-11T06:28:10.671Z,99.85
2023-02-11T06:30:38.059Z,99.48
2023-02-11T06:33:04.840Z,99.25
2023-02-11T06:35:31.316Z,98.13
2023-02-11T06:38:05.531Z,96.89
2023-02-11T06:40:31.914Z,97.19
2023-02-11T06:42:58.284Z,97.81
2023-02-11T06:45:24.709Z,97.43
2023-02-11T06:47:52.737Z,95.88
2023-02-11T06:50:29.188Z,95.03
2023-02-11T06:52:55.559Z,95.57
2023-02-11T06:55:21.993Z,95.84
2023-02-11T06:57:48.366Z,96.23
2023-02-11T07:00:15.123Z,95.42
2023-02-11T07:02:41.644Z,95.05
2023-02-11T07:05:08.656Z,95.28
2023-02-11T07:07:35.704Z,94.27
2023-02-11T07:10:05.824Z,94.82
2023-02-11T07:12:32.257Z,94.51
2023-02-11T07:14:58.858Z,94.21
2023-02-11T07:17:25.271Z,94.20
2023-02-11T07:19:52.688Z,93.62
2023-02-11T07:22:19.548Z,93.59
2023-02-11T07:24:46.412Z,94.32
2023-02-11T07:27:23.129Z,94.86
2023-02-11T07:29:49.524Z,95.38
2023-02-11T07:32:15.992Z,94.36
2023-02-11T07:34:55.807Z,94.70
2023-02-11T07:37:22.201Z,95.11
2023-02-11T07:39:48.570Z,95.27
2023-02-11T07:42:14.931Z,93.95
2023-02-11T07:44:41.413Z,94.05
2023-02-11T07:47:07.880Z,94.10
2023-02-11T07:49:34.311Z,94.18
2023-02-11T07:52:00.711Z,93.56
2023-02-11T07:54:27.083Z,94.36
2023-02-11T07:57:01.689Z,94.12
2023-02-11T07:59:28.073Z,93.96
2023-02-11T08:01:54.548Z,93.20
2023-02-11T08:04:21.013Z,90.50
2023-02-11T08:06:47.429Z,91.19
2023-02-11T08:09:16.933Z,89.85
2023-02-11T08:11:50.512Z,86.66
2023-02-11T08:14:16.952Z,86.98
2023-02-11T08:16:43.484Z,88.26
2023-02-11T08:19:15.526Z,87.84
2023-02-11T08:21:57.460Z,87.83
2023-02-11T08:24:24.009Z,87.85
2023-02-11T08:26:50.410Z,88.18
2023-02-11T08:29:17.868Z,88.32
2023-02-11T08:31:46.843Z,87.96
2023-02-11T08:34:20.392Z,88.77
2023-02-11T08:36:48.777Z,87.59
2023-02-11T08:39:20.223Z,87.65
2023-02-11T08:41:48.991Z,87.21
2023-02-11T08:44:15.936Z,86.41
2023-02-11T08:46:42.332Z,85.85
2023-02-11T08:49:08.707Z,86.04
2023-02-11T08:51:35.200Z,85.60
2023-02-11T08:54:01.653Z,84.54
2023-02-11T08:56:28.498Z,82.51
2023-02-11T08:58:55.167Z,81.69
2023-02-11T09:01:28.409Z,81.18
2023-02-11T09:03:55.239Z,82.72
2023-02-11T09:06:22.546Z,81.20
2023-02-11T09:08:51.624Z,81.90
2023-02-11T09:11:21.645Z,80.56
2023-02-11T09:13:48.226Z,81.64
2023-02-11T09:16:17.799Z,81.45
2023-02-11T09:18:45.587Z,80.65
2023-02-11T09:21:12.834Z,81.17
2023-02-11T09:23:41.709Z,80.25
2023-02-11T09:26:10.629Z,79.92
2023-02-11T09:28:37.088Z,80.02
2023-02-11T09:31:08.527Z,77.69
2023-02-11T09:33:35.486Z,77.20
2023-02-11T09:36:06.096Z,76.36
2023-02-11T09:38:32.917Z,75.70
2023-02-11T09:40:59.570Z,75.19
2023-02-11T09:43:53.720Z,74.48
2023-02-11T09:46:21.869Z,73.98
2023-02-11T09:48:50.698Z,73.84
2023-02-11T09:51:44.775Z,73.89
2023-02-11T09:54:18.281Z,73.41
2023-02-11T09:56:44.650Z,71.10
2023-02-11T09:59:15.390Z,72.40
